White Mills, Kentucky
Current Conditions -  °F | °C
As of 12:58 AM on Sunday 26 Oct 2014 (Local Time) from KFTK Reporting Station
Clear Clear  
Wind Chill: 55°   Ceiling: Unl
Heat Index: 55°   Visibility: 10mi
Dew Point: 52°   Wind: 7mph
Humidity: 88%   Direction: 270°W
Pressure: 29.97"   Gusts: NA
Location:  37.56°N, 86.03°W
Report Text: KFTK 260458Z AUTO 27006KT 10SM CLR 13/11 A2997 RMK AO2 SLP149 T01300110 402430076
Loading
Personal Weather Stations






























Interactive Weather Map
Tropical Storm Tracking
New forecast layout! Learn more

10-Day Weather Forecast

Advertisements
Track Severe Weather on mobile